createdAt,value
2023-05-16T00:01:55.005Z,14.40
2023-05-16T00:04:29.887Z,14.40
2023-05-16T00:07:08.554Z,14.40
2023-05-16T00:09:44.871Z,14.40
2023-05-16T00:18:13.536Z,14.30
2023-05-16T00:20:46.127Z,14.30
2023-05-16T00:23:14.199Z,14.30
2023-05-16T00:25:56.032Z,14.30
2023-05-16T00:28:25.800Z,14.30
2023-05-16T00:30:54.660Z,14.30
2023-05-16T00:33:33.177Z,14.20
2023-05-16T00:36:08.017Z,14.20
2023-05-16T00:38:39.606Z,14.20
2023-05-16T00:44:05.549Z,14.20
2023-05-16T00:46:40.829Z,14.10
2023-05-16T00:49:18.571Z,14.10
2023-05-16T00:52:13.960Z,14.10
2023-05-16T00:54:45.190Z,14.00
2023-05-16T00:57:17.693Z,14.00
2023-05-16T01:05:46.742Z,13.90
2023-05-16T01:08:33.950Z,13.80
2023-05-16T01:11:16.653Z,13.80
2023-05-16T01:13:56.721Z,13.80
2023-05-16T01:16:41.319Z,13.70
2023-05-16T01:19:31.492Z,13.70
2023-05-16T01:22:36.245Z,13.70
2023-05-16T01:25:28.364Z,13.60
2023-05-16T01:28:08.527Z,13.50
2023-05-16T01:30:46.173Z,13.50
2023-05-16T01:33:17.754Z,13.50
2023-05-16T01:36:28.609Z,13.40
2023-05-16T01:39:24.715Z,13.40
2023-05-16T01:42:27.091Z,13.40
2023-05-16T01:45:04.110Z,13.40
2023-05-16T01:47:46.573Z,13.30
2023-05-16T01:53:14.582Z,13.30
2023-05-16T01:56:05.887Z,13.30
2023-05-16T01:58:43.614Z,13.30
2023-05-16T02:01:23.377Z,13.20
2023-05-16T02:04:13.019Z,13.20
2023-05-16T02:07:01.979Z,13.20
2023-05-16T02:09:39.104Z,13.20
2023-05-16T02:12:36.062Z,13.10
2023-05-16T02:15:12.821Z,13.10
2023-05-16T02:18:12.717Z,13.10
2023-05-16T02:20:36.261Z,13.00
2023-05-16T02:23:10.959Z,13.00
2023-05-16T02:25:51.338Z,13.00
2023-05-16T02:28:21.696Z,13.00
2023-05-16T02:31:02.252Z,13.00
2023-05-16T02:33:57.929Z,13.00
2023-05-16T02:36:42.480Z,13.00
2023-05-16T02:39:18.175Z,13.00
2023-05-16T02:41:48.610Z,12.90
2023-05-16T02:44:17.517Z,12.90
2023-05-16T02:46:49.539Z,12.90
2023-05-16T02:49:20.095Z,12.90
2023-05-16T02:51:48.914Z,12.90
2023-05-16T02:54:28.635Z,12.90
2023-05-16T02:57:08.184Z,12.90
2023-05-16T02:59:44.313Z,12.90
2023-05-16T03:02:13.074Z,12.90
2023-05-16T03:04:41.948Z,12.90
2023-05-16T03:07:10.603Z,12.90
2023-05-16T03:09:39.170Z,12.90
2023-05-16T03:12:08.043Z,12.80
2023-05-16T03:14:36.596Z,12.80
2023-05-16T03:17:05.305Z,12.80
2023-05-16T03:19:34.294Z,12.80
2023-05-16T03:22:03.048Z,12.80
2023-05-16T03:24:31.681Z,12.80
2023-05-16T03:27:00.536Z,12.80
2023-05-16T03:29:48.465Z,12.70
2023-05-16T03:32:17.426Z,12.70
2023-05-16T03:34:46.771Z,12.70
2023-05-16T03:37:16.088Z,12.70
2023-05-16T03:39:44.663Z,12.70
2023-05-16T03:42:13.306Z,12.70
2023-05-16T03:45:31.213Z,12.70
2023-05-16T03:48:11.921Z,12.60
2023-05-16T03:56:39.050Z,12.50
2023-05-16T04:02:10.057Z,12.40
2023-05-16T04:04:47.312Z,12.40
2023-05-16T04:07:27.525Z,12.30
2023-05-16T04:10:14.057Z,12.30
2023-05-16T04:13:20.322Z,12.30
2023-05-16T04:15:27.483Z,12.30
2023-05-16T04:18:29.216Z,12.30
2023-05-16T04:21:16.307Z,12.30
2023-05-16T04:23:45.317Z,12.30
2023-05-16T04:26:21.704Z,12.20
2023-05-16T04:32:10.650Z,12.20
2023-05-16T04:34:51.960Z,12.20
2023-05-16T04:37:34.789Z,12.10
2023-05-16T04:40:04.520Z,12.10
2023-05-16T04:42:36.104Z,12.10
2023-05-16T04:45:23.837Z,12.00
2023-05-16T04:47:57.319Z,12.00
2023-05-16T04:50:30.377Z,12.00
2023-05-16T04:53:04.875Z,12.10
2023-05-16T04:55:58.359Z,12.10
2023-05-16T04:58:30.329Z,12.10
2023-05-16T05:01:01.702Z,12.30
2023-05-16T05:03:30.065Z,12.40
2023-05-16T05:06:01.155Z,12.50
2023-05-16T05:08:32.364Z,12.60
2023-05-16T05:11:03.091Z,12.80
2023-05-16T05:13:33.400Z,12.90
2023-05-16T05:16:06.414Z,13.00
2023-05-16T05:18:35.221Z,13.20
2023-05-16T05:21:04.000Z,13.30
2023-05-16T05:23:46.159Z,13.40
2023-05-16T05:26:16.529Z,13.50
2023-05-16T05:29:30.831Z,13.60
2023-05-16T05:37:24.059Z,13.70
2023-05-16T05:42:58.146Z,13.90
2023-05-16T05:45:50.806Z,14.00
2023-05-16T05:48:28.159Z,14.20
2023-05-16T05:57:32.700Z,14.80
2023-05-16T06:00:17.705Z,14.90
2023-05-16T06:03:18.854Z,15.00
2023-05-16T06:06:05.107Z,15.00
2023-05-16T06:08:33.221Z,15.00
2023-05-16T06:11:02.038Z,15.00
2023-05-16T06:13:30.886Z,15.00
2023-05-16T06:16:01.445Z,15.10
2023-05-16T06:18:30.222Z,15.10
2023-05-16T06:20:58.889Z,15.00
2023-05-16T06:23:27.561Z,15.00
2023-05-16T06:25:56.190Z,14.80
2023-05-16T06:28:24.947Z,14.70
2023-05-16T06:30:53.733Z,14.60
2023-05-16T06:33:22.744Z,14.50
2023-05-16T06:35:52.425Z,14.30
2023-05-16T06:38:21.167Z,14.20
2023-05-16T06:40:49.767Z,14.10
2023-05-16T06:43:18.978Z,14.00
2023-05-16T06:45:47.662Z,13.90
2023-05-16T06:48:16.680Z,13.90
2023-05-16T06:50:50.920Z,13.90
2023-05-16T06:53:20.082Z,14.20
2023-05-16T06:55:48.865Z,14.50
2023-05-16T06:58:17.556Z,14.80
2023-05-16T07:00:46.567Z,15.00
2023-05-16T07:03:15.510Z,15.30
2023-05-16T07:05:47.105Z,15.50
2023-05-16T07:08:16.121Z,15.70
2023-05-16T07:10:45.013Z,15.90
2023-05-16T07:13:13.698Z,16.10
2023-05-16T07:15:43.061Z,16.40
2023-05-16T07:18:12.092Z,16.60
2023-05-16T07:20:40.710Z,16.80
2023-05-16T07:23:09.339Z,16.90
2023-05-16T07:25:38.144Z,16.90
2023-05-16T07:28:06.866Z,16.70
2023-05-16T07:30:35.542Z,16.60
2023-05-16T07:33:04.249Z,16.50
2023-05-16T07:35:33.088Z,16.30
2023-05-16T07:38:01.703Z,16.10
2023-05-16T07:40:30.401Z,16.00
2023-05-16T07:42:59.512Z,16.00
2023-05-16T07:45:28.723Z,16.10
2023-05-16T07:47:58.234Z,16.10
2023-05-16T07:50:27.377Z,16.10
2023-05-16T07:52:56.255Z,16.10
2023-05-16T07:55:24.993Z,16.30
2023-05-16T07:57:53.796Z,16.60
2023-05-16T08:00:22.844Z,16.90
2023-05-16T08:02:52.026Z,17.20
2023-05-16T08:05:20.821Z,17.40
2023-05-16T08:07:49.549Z,17.50
2023-05-16T08:10:18.437Z,17.70
2023-05-16T08:12:48.378Z,17.90
2023-05-16T08:15:17.008Z,18.00
2023-05-16T08:17:45.637Z,18.20
2023-05-16T08:20:14.694Z,18.50
2023-05-16T08:22:43.901Z,18.80
2023-05-16T08:25:12.540Z,19.00
2023-05-16T08:27:41.249Z,19.10
2023-05-16T08:30:11.986Z,19.00
2023-05-16T08:32:40.768Z,19.00
2023-05-16T08:35:10.965Z,19.00
2023-05-16T08:37:39.640Z,19.10
2023-05-16T08:40:10.574Z,19.30
2023-05-16T08:42:40.855Z,19.50
2023-05-16T08:45:11.564Z,19.50
2023-05-16T08:47:42.900Z,19.50
2023-05-16T08:50:11.940Z,19.30
2023-05-16T08:52:43.215Z,19.10
2023-05-16T08:55:13.572Z,19.00
2023-05-16T08:57:43.160Z,18.80
2023-05-16T09:00:13.640Z,18.80
2023-05-16T09:02:45.533Z,19.00
2023-05-16T09:05:16.501Z,19.00
2023-05-16T09:07:46.128Z,19.10
2023-05-16T09:10:14.867Z,19.30
2023-05-16T09:12:44.103Z,19.50
2023-05-16T09:15:13.050Z,19.60
2023-05-16T09:17:46.969Z,19.60
2023-05-16T09:20:21.500Z,19.70
2023-05-16T09:22:55.424Z,19.80
2023-05-16T09:25:30.112Z,19.90
2023-05-16T09:27:58.151Z,20.00
2023-05-16T09:30:32.213Z,20.10
2023-05-16T09:33:01.098Z,20.20
2023-05-16T09:38:00.224Z,20.40
2023-05-16T09:40:28.859Z,20.40
2023-05-16T09:43:06.048Z,20.50
2023-05-16T09:45:39.937Z,20.60
2023-05-16T09:48:12.758Z,20.70
2023-05-16T09:50:42.955Z,20.80
2023-05-16T09:53:13.434Z,20.90
2023-05-16T09:55:42.160Z,21.00
2023-05-16T09:58:12.834Z,21.00
2023-05-16T10:00:42.464Z,21.00
2023-05-16T10:03:12.454Z,21.10
2023-05-16T10:05:43.153Z,21.30
2023-05-16T10:08:12.348Z,21.40
2023-05-16T10:10:43.982Z,21.40
2023-05-16T10:13:14.916Z,21.40
2023-05-16T10:15:44.487Z,21.30
2023-05-16T10:18:16.810Z,21.20
2023-05-16T10:20:49.455Z,21.10
2023-05-16T10:23:18.932Z,21.00
2023-05-16T10:25:52.712Z,20.70
2023-05-16T10:28:21.624Z,20.50
2023-05-16T10:30:51.632Z,20.20
2023-05-16T10:33:20.507Z,19.90
2023-05-16T10:35:49.676Z,19.70
2023-05-16T10:38:20.541Z,19.80
2023-05-16T10:40:50.382Z,20.00
2023-05-16T10:43:27.678Z,20.20
2023-05-16T10:45:58.107Z,20.30
2023-05-16T10:48:35.352Z,20.30
2023-05-16T10:51:07.726Z,20.30
2023-05-16T10:53:37.414Z,20.10
2023-05-16T10:56:09.029Z,20.00
2023-05-16T10:58:40.927Z,19.80
2023-05-16T11:01:30.273Z,19.60
2023-05-16T11:04:02.545Z,19.50
2023-05-16T11:06:34.103Z,19.30
2023-05-16T11:09:09.367Z,19.20
2023-05-16T11:11:49.128Z,19.00
2023-05-16T11:14:37.003Z,18.90
2023-05-16T11:17:22.859Z,18.70
2023-05-16T11:20:03.642Z,18.60
2023-05-16T11:22:36.674Z,18.40
2023-05-16T11:25:10.763Z,18.10
2023-05-16T11:27:44.521Z,17.90
2023-05-16T11:30:15.878Z,17.80
2023-05-16T11:32:46.614Z,17.70
2023-05-16T11:35:17.786Z,17.60
2023-05-16T11:37:46.992Z,17.50
2023-05-16T11:40:17.137Z,17.40
2023-05-16T11:42:48.369Z,17.40
2023-05-16T11:45:19.520Z,17.50
2023-05-16T11:47:50.398Z,17.70
2023-05-16T11:50:23.586Z,18.00
2023-05-16T11:52:56.277Z,18.30
2023-05-16T11:55:41.099Z,18.70
2023-05-16T11:58:00.663Z,19.10
2023-05-16T12:00:29.753Z,19.50
2023-05-16T12:03:05.066Z,19.90
2023-05-16T12:05:35.638Z,20.20
2023-05-16T12:08:25.575Z,20.50
2023-05-16T12:14:05.990Z,20.60
2023-05-16T12:16:56.890Z,20.50
2023-05-16T12:19:40.300Z,20.10
2023-05-16T12:22:44.167Z,19.80
2023-05-16T12:29:05.715Z,19.10
2023-05-16T12:32:10.450Z,18.80
2023-05-16T12:34:25.910Z,18.50
2023-05-16T12:37:07.120Z,18.30
2023-05-16T12:39:46.684Z,18.20
2023-05-16T12:56:03.146Z,18.10
2023-05-16T12:58:48.407Z,19.10
2023-05-16T13:01:28.571Z,19.40
2023-05-16T13:04:17.597Z,19.70
2023-05-16T13:07:12.709Z,20.00
2023-05-16T13:15:27.340Z,20.60
2023-05-16T13:18:10.314Z,20.90
2023-05-16T13:21:08.688Z,21.10
2023-05-16T13:24:01.168Z,21.10
2023-05-16T13:26:34.636Z,21.00
2023-05-16T13:29:08.708Z,20.90
2023-05-16T13:31:52.253Z,21.00
2023-05-16T13:34:23.275Z,21.00
2023-05-16T13:36:57.635Z,21.00
2023-05-16T13:39:37.132Z,21.20
2023-05-16T13:42:07.836Z,21.20
2023-05-16T13:44:46.296Z,21.40
2023-05-16T13:47:21.037Z,21.50
2023-05-16T13:49:51.130Z,21.60
2023-05-16T13:52:24.116Z,21.50
2023-05-16T13:55:17.997Z,21.40
2023-05-16T13:57:49.124Z,21.40
2023-05-16T14:03:02.937Z,21.60
2023-05-16T14:05:30.369Z,21.60
2023-05-16T14:08:01.915Z,21.60
2023-05-16T14:16:44.371Z,21.30
2023-05-16T14:21:06.759Z,21.30
2023-05-16T14:22:25.391Z,21.30
2023-05-16T14:25:50.802Z,21.40
2023-05-16T14:27:56.138Z,21.50
2023-05-16T14:31:02.084Z,21.60
2023-05-16T14:34:25.364Z,21.70
2023-05-16T14:50:00.167Z,21.50
2023-05-16T14:53:17.805Z,20.40
2023-05-16T15:01:35.808Z,19.80
2023-05-16T15:04:04.500Z,19.70
2023-05-16T15:06:33.175Z,19.60
2023-05-16T15:09:01.979Z,19.50
2023-05-16T15:11:32.173Z,19.40
2023-05-16T15:14:01.723Z,19.30
2023-05-16T15:16:31.443Z,19.10
2023-05-16T15:19:00.237Z,19.00
2023-05-16T15:21:28.985Z,19.00
2023-05-16T15:23:57.699Z,19.10
2023-05-16T15:26:26.467Z,19.30
2023-05-16T15:28:55.713Z,19.50
2023-05-16T15:31:24.406Z,19.60
2023-05-16T15:33:53.071Z,19.60
2023-05-16T15:36:21.689Z,19.60
2023-05-16T15:38:50.416Z,19.50
2023-05-16T15:41:36.779Z,19.50
2023-05-16T15:43:49.348Z,19.40
2023-05-16T15:46:18.023Z,19.40
2023-05-16T15:48:46.630Z,19.30
2023-05-16T15:51:16.024Z,19.30
2023-05-16T15:53:44.804Z,19.30
2023-05-16T15:56:13.444Z,19.20
2023-05-16T15:58:42.065Z,19.10
2023-05-16T16:01:10.858Z,19.00
2023-05-16T16:03:39.720Z,19.00
2023-05-16T16:06:08.621Z,19.00
2023-05-16T16:08:37.282Z,18.90
2023-05-16T16:11:06.055Z,18.80
2023-05-16T16:13:34.677Z,18.80
2023-05-16T16:16:03.428Z,18.80
2023-05-16T16:18:32.361Z,18.70
2023-05-16T16:21:01.392Z,18.60
2023-05-16T16:23:30.357Z,18.60
2023-05-16T16:25:59.000Z,18.50
2023-05-16T16:28:27.661Z,18.50
2023-05-16T16:30:56.300Z,18.40
2023-05-16T16:33:24.926Z,18.30
2023-05-16T16:35:55.554Z,18.20
2023-05-16T16:38:24.137Z,18.10
2023-05-16T16:40:52.778Z,18.00
2023-05-16T16:43:21.449Z,18.00
2023-05-16T16:45:50.778Z,17.90
2023-05-16T16:48:19.397Z,17.80
2023-05-16T16:50:48.024Z,17.70
2023-05-16T16:53:16.654Z,17.70
2023-05-16T16:55:45.875Z,17.60
2023-05-16T16:58:14.600Z,17.50
2023-05-16T17:00:44.323Z,17.50
2023-05-16T17:03:13.314Z,17.40
2023-05-16T17:05:43.003Z,17.30
2023-05-16T17:08:12.106Z,17.30
2023-05-16T17:10:40.789Z,17.30
2023-05-16T17:13:11.062Z,17.30
2023-05-16T17:15:39.726Z,17.30
2023-05-16T17:18:08.428Z,17.20
2023-05-16T17:20:37.804Z,17.20
2023-05-16T17:23:06.620Z,17.20
2023-05-16T17:25:35.621Z,17.10
2023-05-16T17:28:04.264Z,17.10
2023-05-16T17:30:32.904Z,17.10
2023-05-16T17:33:01.876Z,17.10
2023-05-16T17:35:30.832Z,17.10
2023-05-16T17:37:59.732Z,17.00
2023-05-16T17:40:28.463Z,17.00
2023-05-16T17:42:57.124Z,16.90
2023-05-16T17:45:26.259Z,16.90
2023-05-16T17:47:55.128Z,16.80
2023-05-16T17:50:23.887Z,16.80
2023-05-16T17:52:52.577Z,16.70
2023-05-16T17:55:23.082Z,16.70
2023-05-16T17:57:51.776Z,16.70
2023-05-16T18:00:22.536Z,16.60
2023-05-16T18:02:52.338Z,16.60
2023-05-16T18:05:21.007Z,16.50
2023-05-16T18:07:49.627Z,16.50
2023-05-16T18:10:18.622Z,16.50
2023-05-16T18:12:47.643Z,16.40
2023-05-16T18:15:16.361Z,16.40
2023-05-16T18:17:45.367Z,16.30
2023-05-16T18:20:14.356Z,16.30
2023-05-16T18:22:43.600Z,16.30
2023-05-16T18:25:12.445Z,16.20
2023-05-16T18:27:41.354Z,16.20
2023-05-16T18:30:12.342Z,16.10
2023-05-16T18:32:41.420Z,16.10
2023-05-16T18:35:10.456Z,16.00
2023-05-16T18:37:39.123Z,16.00
2023-05-16T18:40:08.711Z,16.00
2023-05-16T18:42:37.355Z,15.90
2023-05-16T18:45:06.538Z,15.90
2023-05-16T18:47:35.222Z,15.90
2023-05-16T18:50:04.748Z,15.90
2023-05-16T18:52:35.194Z,15.90
2023-05-16T18:55:04.007Z,15.80
2023-05-16T18:57:32.710Z,15.80
2023-05-16T19:00:01.428Z,15.80
2023-05-16T19:02:41.379Z,15.80
2023-05-16T19:05:03.582Z,15.80
2023-05-16T19:07:32.347Z,15.70
2023-05-16T19:10:03.381Z,15.70
2023-05-16T19:12:31.351Z,15.70
2023-05-16T19:14:59.964Z,15.70
2023-05-16T19:17:30.599Z,15.60
2023-05-16T19:19:59.496Z,15.70
2023-05-16T19:22:28.192Z,15.60
2023-05-16T19:24:57.332Z,15.60
2023-05-16T19:27:26.132Z,15.60
2023-05-16T19:29:54.847Z,15.60
2023-05-16T19:32:23.485Z,15.60
2023-05-16T19:34:52.344Z,15.50
2023-05-16T19:37:21.201Z,15.50
2023-05-16T19:39:49.968Z,15.50
2023-05-16T19:42:18.635Z,15.50
2023-05-16T19:44:47.250Z,15.50
2023-05-16T19:47:16.045Z,15.50
2023-05-16T19:49:44.646Z,15.50
2023-05-16T19:52:14.542Z,15.50
2023-05-16T19:54:43.725Z,15.40
2023-05-16T19:57:12.441Z,15.40
2023-05-16T19:59:41.093Z,15.40
2023-05-16T20:02:09.884Z,15.40
2023-05-16T20:04:39.379Z,15.40
2023-05-16T20:07:08.001Z,15.40
2023-05-16T20:09:36.689Z,15.40
2023-05-16T20:12:05.780Z,15.30
2023-05-16T20:14:34.503Z,15.30
2023-05-16T20:17:03.162Z,15.20
2023-05-16T20:19:32.014Z,15.50
2023-05-16T20:22:02.750Z,15.10
2023-05-16T20:24:31.452Z,15.10
2023-05-16T20:27:00.287Z,15.10
2023-05-16T20:29:30.667Z,15.00
2023-05-16T20:31:59.468Z,15.00
2023-05-16T20:34:28.219Z,14.90
2023-05-16T20:36:56.838Z,14.90
2023-05-16T20:39:28.951Z,14.90
2023-05-16T20:41:57.623Z,14.90
2023-05-16T20:44:26.320Z,14.80
2023-05-16T20:46:54.952Z,14.80
2023-05-16T20:49:23.674Z,14.80
2023-05-16T20:51:52.332Z,14.80
2023-05-16T20:54:21.063Z,14.80
2023-05-16T20:56:50.126Z,14.80
2023-05-16T20:59:18.950Z,14.80
2023-05-16T21:01:47.766Z,14.80
2023-05-16T21:04:16.979Z,14.70
2023-05-16T21:06:46.031Z,14.70
2023-05-16T21:09:14.759Z,14.70
2023-05-16T21:11:43.599Z,14.70
2023-05-16T21:14:12.351Z,14.70
2023-05-16T21:16:41.143Z,14.70
2023-05-16T21:19:10.022Z,14.60
2023-05-16T21:21:40.703Z,14.60
2023-05-16T21:24:09.533Z,14.70
2023-05-16T21:26:38.363Z,14.70
2023-05-16T21:29:07.056Z,14.70
2023-05-16T21:31:37.288Z,14.70
2023-05-16T21:34:06.197Z,14.70
2023-05-16T21:36:34.898Z,14.70
2023-05-16T21:39:03.628Z,14.60
2023-05-16T21:41:32.309Z,14.70
2023-05-16T21:44:01.108Z,14.60
2023-05-16T21:46:29.876Z,14.60
2023-05-16T21:48:58.655Z,14.60
2023-05-16T21:51:27.390Z,14.60
2023-05-16T21:53:56.049Z,14.60
2023-05-16T21:56:26.079Z,14.50
2023-05-16T21:58:55.257Z,14.40
2023-05-16T22:01:28.721Z,14.40
2023-05-16T22:03:57.866Z,14.30
2023-05-16T22:06:26.810Z,14.20
2023-05-16T22:08:55.446Z,14.20
2023-05-16T22:11:24.159Z,14.10
2023-05-16T22:13:52.801Z,14.00
2023-05-16T22:16:21.419Z,14.00
2023-05-16T22:18:50.256Z,13.90
2023-05-16T22:21:20.656Z,13.80
2023-05-16T22:23:49.319Z,13.70
2023-05-16T22:26:17.951Z,13.70
2023-05-16T22:28:46.586Z,13.60
2023-05-16T22:31:15.278Z,13.60
2023-05-16T22:33:44.031Z,13.60
2023-05-16T22:36:12.772Z,13.50
2023-05-16T22:38:41.410Z,13.40
2023-05-16T22:41:10.077Z,13.40
2023-05-16T22:43:39.521Z,13.30
2023-05-16T22:46:08.197Z,13.30
2023-05-16T22:48:36.930Z,13.20
2023-05-16T22:51:05.997Z,13.20
2023-05-16T22:53:36.502Z,13.10
2023-05-16T22:56:06.926Z,13.00
2023-05-16T22:58:35.909Z,13.00
2023-05-16T23:01:04.716Z,12.90
2023-05-16T23:03:34.178Z,12.90
2023-05-16T23:06:02.937Z,12.90
2023-05-16T23:08:31.677Z,12.80
2023-05-16T23:11:00.489Z,12.80
2023-05-16T23:13:29.122Z,12.80
2023-05-16T23:15:57.856Z,12.70
2023-05-16T23:18:26.636Z,12.60
2023-05-16T23:20:55.299Z,12.60
2023-05-16T23:23:23.995Z,12.60
2023-05-16T23:25:52.754Z,12.60
2023-05-16T23:28:21.881Z,12.50
2023-05-16T23:30:51.431Z,12.50
2023-05-16T23:33:20.448Z,12.50
2023-05-16T23:35:49.261Z,12.40
2023-05-16T23:38:29.036Z,12.40
2023-05-16T23:40:58.510Z,12.40
2023-05-16T23:43:28.918Z,12.40
2023-05-16T23:45:57.629Z,12.30
2023-05-16T23:48:26.463Z,12.30
2023-05-16T23:50:55.193Z,12.30
2023-05-16T23:53:27.406Z,12.30
2023-05-16T23:56:00.254Z,12.30
2023-05-16T23:58:29.545Z,12.30
